Bronx, NY

8:27 AM EST en Diciembre 18, 2014 (GMT -0500)
South Bronx | Change Station
CLOSE
Current Station
Estación meteorológica personal
Location: New York, NY
Altura: 36 ft
Estaciones meteorológicas cercanas

Alt 36 ft 40.81 °N, 73.91 °W | Updated 25 minutes ago

Muy nublado
Muy nublado
38.6 ° F
Sensación térmica 36 ° F
N
3.4
Viento Variable Viento desde SSO
Gusts 13.0 mph

Hoy
Alta -- | Baja -- ° F
--% Posibilidad de precipitaciones
Ayer
Alta -- | Baja -- ° F
Precip. -- pul
7:14 AM 4:29 PM
Creciente menguante, 14% visible
Presión 29.96 pul
Visibilidad 10.0 Millas
Nubes Nubes dispersas 4000 ft
Nubes dispersas 10000 ft
Vientos helados 36 ° F
Punto de rocío 24 ° F
Humedad 56%
Precipitaciones -999.00 pul
Espesor de la nieve No disponible.
UV 0 de una escala de 12
Polen .10 de una escala de 12
Calidad del aire No disponible.
Flu Activity No disponible.
METAR KLGA 181251Z 30017G25KT 10SM SCT040 SCT100 03/M05 A2996 RMK AO2 PK WND 30027/1152 SLP145 T00331050

More Conditions Fewer Conditions

Presión 29.96 pul
Visibilidad 10.0 Millas
Nubes Nubes dispersas 4000 ft
Nubes dispersas 10000 ft
Vientos helados 36 ° F
Punto de rocío 24 ° F
Humedad 56%
Precipitaciones -999.00 pul
Espesor de la nieve No disponible.
UV 0 de una escala de 12
Polen .10 de una escala de 12
Calidad del aire No disponible.
Flu Activity No disponible.
METAR KLGA 181251Z 30017G25KT 10SM SCT040 SCT100 03/M05 A2996 RMK AO2 PK WND 30027/1152 SLP145 T00331050

More Conditions Fewer Conditions

10-Day Weather Forecast

Almanac

Astronomía

Dec. 18, 2014 Salida Puesta
Hora real
Crepúsculo civil
Crepúsculo náutico
Crepúsculo astronómico
Luna
Horas de luz
Horas de luz
Tomorrow will be .
, % of the Moon is Illuminated

Extremos de hoy

Máximos del estado Bajos del estado

Community

WunderPhotos

Upload Photos

1,778,925 ¡fotos cargadas!

WunderBlogs® & News

Nearby

Calidad del aire

  Calidad del aire Índice AQ Contaminante
Not available.

Grosos de nieve

Estación Profundido Altura

Actividad de terremotos

Ciudad Distance Mag. Tiempo y dato
Magnitud mínima muestra es 2,5.

Temperaturas de aguas costeras

Lugar Temperatura

Estaciones meteorológicas cercanas